createdAt,value
2023-03-11T00:00:48.825Z,107.80
2023-03-11T00:04:48.791Z,114.72
2023-03-11T00:08:48.767Z,109.74
2023-03-11T00:12:48.799Z,111.47
2023-03-11T00:16:48.731Z,108.09
2023-03-11T00:20:48.632Z,109.23
2023-03-11T00:24:48.618Z,109.17
2023-03-11T00:28:48.608Z,106.26
2023-03-11T00:32:48.589Z,105.29
2023-03-11T00:36:48.546Z,108.32
2023-03-11T00:40:48.610Z,106.81
2023-03-11T00:44:48.558Z,107.44
2023-03-11T00:48:48.574Z,108.32
2023-03-11T00:52:48.519Z,104.31
2023-03-11T00:56:48.455Z,106.47
2023-03-11T01:00:48.388Z,104.43
2023-03-11T01:04:48.474Z,105.41
2023-03-11T01:08:48.307Z,104.86
2023-03-11T01:12:48.269Z,103.99
2023-03-11T01:16:48.225Z,103.04
2023-03-11T01:20:48.220Z,100.41
2023-03-11T01:24:48.353Z,102.01
2023-03-11T01:28:48.326Z,103.42
2023-03-11T01:32:48.347Z,102.90
2023-03-11T01:36:48.318Z,100.16
2023-03-11T01:40:48.236Z,103.31
2023-03-11T01:44:48.175Z,100.61
2023-03-11T01:48:48.156Z,99.91
2023-03-11T01:52:48.137Z,98.86
2023-03-11T01:56:48.049Z,97.60
2023-03-11T02:00:48.000Z,95.59
2023-03-11T02:04:48.012Z,99.29
2023-03-11T02:08:48.058Z,98.72
2023-03-11T02:12:48.052Z,97.92
2023-03-11T02:16:47.996Z,98.87
2023-03-11T02:20:47.974Z,97.00
2023-03-11T02:24:47.935Z,95.56
2023-03-11T02:28:47.917Z,95.73
2023-03-11T02:32:47.934Z,95.50
2023-03-11T02:36:47.866Z,93.09
2023-03-11T02:40:47.830Z,89.99
2023-03-11T02:44:47.824Z,95.14
2023-03-11T02:48:47.673Z,93.28
2023-03-11T02:52:47.910Z,92.78
2023-03-11T02:56:48.174Z,91.30
2023-03-11T03:00:48.228Z,90.46
2023-03-11T03:04:48.428Z,90.81
2023-03-11T03:08:48.100Z,90.99
2023-03-11T03:12:48.002Z,90.58
2023-03-11T03:16:48.038Z,87.37
2023-03-11T03:20:47.899Z,89.12
2023-03-11T03:24:47.856Z,86.71
2023-03-11T03:28:47.831Z,89.42
2023-03-11T03:32:47.869Z,85.92
2023-03-11T03:36:47.901Z,86.51
2023-03-11T03:40:48.056Z,84.67
2023-03-11T03:44:48.329Z,85.44
2023-03-11T03:48:48.197Z,84.58
2023-03-11T03:52:48.156Z,85.97
2023-03-11T03:56:48.124Z,84.62
2023-03-11T04:00:48.141Z,83.77
2023-03-11T04:04:48.085Z,84.83
2023-03-11T04:08:48.038Z,86.63
2023-03-11T04:12:47.970Z,84.41
2023-03-11T04:16:48.019Z,80.03
2023-03-11T04:20:47.935Z,84.93
2023-03-11T04:24:47.885Z,80.41
2023-03-11T04:28:47.990Z,82.48
2023-03-11T04:32:48.139Z,80.88
2023-03-11T04:36:48.292Z,79.49
2023-03-11T04:40:48.529Z,76.76
2023-03-11T04:44:48.675Z,79.85
2023-03-11T04:48:48.858Z,81.09
2023-03-11T04:52:49.010Z,79.25
2023-03-11T04:56:49.138Z,79.46
2023-03-11T05:00:49.222Z,80.34
2023-03-11T05:04:49.439Z,76.51
2023-03-11T05:08:49.432Z,77.10
2023-03-11T05:12:49.455Z,78.38
2023-03-11T05:16:49.595Z,75.83
2023-03-11T05:20:49.629Z,73.82
2023-03-11T05:24:49.570Z,77.15
2023-03-11T05:28:49.687Z,74.26
2023-03-11T05:32:49.712Z,76.11
2023-03-11T05:36:49.709Z,76.79
2023-03-11T05:40:49.621Z,74.35
2023-03-11T05:44:49.615Z,72.01
2023-03-11T05:48:49.615Z,74.80
2023-03-11T05:52:49.645Z,74.90
2023-03-11T05:56:49.596Z,75.22
2023-03-11T06:00:49.636Z,76.12
2023-03-11T06:04:49.714Z,73.22
2023-03-11T06:08:49.566Z,73.14
2023-03-11T06:12:49.594Z,73.37
2023-03-11T06:16:49.596Z,75.11
2023-03-11T06:20:49.716Z,73.25
2023-03-11T06:24:49.634Z,73.11
2023-03-11T06:28:49.607Z,71.44
2023-03-11T06:32:49.673Z,73.04
2023-03-11T06:36:49.619Z,73.33
2023-03-11T06:40:49.657Z,71.28
2023-03-11T06:44:49.605Z,72.44
2023-03-11T06:48:49.588Z,70.45
2023-03-11T06:52:49.626Z,72.36
2023-03-11T06:56:49.674Z,69.82
2023-03-11T07:00:49.755Z,70.61
2023-03-11T07:04:49.699Z,70.42
2023-03-11T07:08:49.743Z,70.90
2023-03-11T07:12:49.749Z,69.21
2023-03-11T07:16:49.765Z,70.79
2023-03-11T07:20:49.718Z,68.10
2023-03-11T07:24:49.687Z,67.33
2023-03-11T07:28:49.663Z,64.73
2023-03-11T07:32:49.732Z,62.43
2023-03-11T07:36:49.651Z,62.27
2023-03-11T07:40:49.738Z,59.17
2023-03-11T07:44:49.786Z,56.83
2023-03-11T07:48:49.635Z,55.89
2023-03-11T07:52:49.669Z,55.28
2023-03-11T07:56:49.709Z,54.36
2023-03-11T08:00:49.764Z,56.15
2023-03-11T08:04:49.739Z,58.68
2023-03-11T08:08:49.828Z,59.86
2023-03-11T08:12:49.908Z,60.28
2023-03-11T08:16:49.982Z,59.66
2023-03-11T08:20:50.126Z,56.28
2023-03-11T08:24:50.255Z,61.21
2023-03-11T08:28:50.319Z,58.92
2023-03-11T08:32:50.501Z,59.46
2023-03-11T08:36:50.632Z,59.21
2023-03-11T08:40:50.860Z,59.74
2023-03-11T08:44:50.841Z,60.29
2023-03-11T08:48:50.865Z,58.96
2023-03-11T08:52:50.760Z,58.77
2023-03-11T08:56:50.655Z,57.39
2023-03-11T09:00:50.635Z,58.13
2023-03-11T09:04:50.610Z,61.84
2023-03-11T09:08:50.579Z,60.76
2023-03-11T09:12:50.653Z,57.30
2023-03-11T09:16:50.622Z,59.55
2023-03-11T09:20:50.530Z,57.25
2023-03-11T09:24:50.799Z,57.22
2023-03-11T09:28:50.903Z,57.28
2023-03-11T09:32:51.145Z,60.89
2023-03-11T09:36:51.281Z,58.65
2023-03-11T09:40:51.369Z,58.10
2023-03-11T09:44:51.529Z,57.14
2023-03-11T09:48:51.564Z,59.43
2023-03-11T09:52:51.650Z,55.41
2023-03-11T09:56:51.795Z,54.47
2023-03-11T10:00:51.804Z,56.67
2023-03-11T10:04:51.924Z,54.42
2023-03-11T10:08:51.861Z,55.44
2023-03-11T10:12:51.794Z,55.34
2023-03-11T10:16:51.745Z,53.48
2023-03-11T10:20:51.804Z,57.98
2023-03-11T10:24:51.712Z,58.02
2023-03-11T10:28:51.702Z,61.64
2023-03-11T10:32:51.659Z,59.90
2023-03-11T10:36:51.657Z,58.63
2023-03-11T10:40:51.565Z,61.68
2023-03-11T10:44:52.590Z,56.47
2023-03-11T10:48:51.513Z,55.61
2023-03-11T10:52:51.428Z,52.26
2023-03-11T10:56:51.410Z,55.57
2023-03-11T11:00:51.412Z,48.44
2023-03-11T11:04:51.370Z,47.38
2023-03-11T11:08:51.555Z,48.22
2023-03-11T11:12:51.777Z,48.02
2023-03-11T11:16:51.988Z,44.65
2023-03-11T11:20:51.972Z,48.46
2023-03-11T11:24:52.064Z,47.38
2023-03-11T11:28:52.006Z,49.86
2023-03-11T11:32:52.108Z,44.28
2023-03-11T11:36:52.042Z,49.00
2023-03-11T11:40:52.078Z,44.16
2023-03-11T11:44:52.059Z,39.94
2023-03-11T11:48:52.121Z,41.43
2023-03-11T11:52:52.112Z,38.93
2023-03-11T11:56:52.209Z,35.39
2023-03-11T12:00:52.271Z,38.44
2023-03-11T12:04:52.477Z,36.38
2023-03-11T12:08:52.396Z,36.69
2023-03-11T12:12:52.413Z,41.73
2023-03-11T12:16:52.389Z,36.54
2023-03-11T12:20:52.373Z,38.31
2023-03-11T12:24:52.296Z,37.84
2023-03-11T12:28:52.243Z,38.69
2023-03-11T12:32:52.255Z,34.01
2023-03-11T12:36:52.208Z,37.19
2023-03-11T12:40:52.126Z,34.74
2023-03-11T12:44:52.112Z,36.17
2023-03-11T12:48:52.043Z,36.35
2023-03-11T12:52:52.047Z,35.76
2023-03-11T12:56:52.025Z,32.42
2023-03-11T13:00:51.993Z,30.86
2023-03-11T13:04:51.926Z,31.54
2023-03-11T13:08:52.005Z,30.81
2023-03-11T13:12:51.975Z,31.87
2023-03-11T13:16:51.958Z,30.19
2023-03-11T13:20:51.937Z,29.66
2023-03-11T13:24:51.850Z,25.18
2023-03-11T13:28:51.842Z,31.02
2023-03-11T13:32:51.944Z,31.59
2023-03-11T13:36:51.753Z,30.13
2023-03-11T13:40:51.777Z,30.03
2023-03-11T13:44:51.740Z,28.61
2023-03-11T13:48:51.771Z,26.20
2023-03-11T13:52:51.688Z,29.72
2023-03-11T13:56:51.817Z,31.33
2023-03-11T14:00:52.064Z,30.35
2023-03-11T14:04:52.090Z,27.52
2023-03-11T14:08:52.189Z,30.26
2023-03-11T14:12:52.280Z,29.24
2023-03-11T14:16:52.449Z,28.38
2023-03-11T14:20:52.458Z,29.42
2023-03-11T14:24:52.492Z,29.64
2023-03-11T14:28:52.598Z,31.58
2023-03-11T14:32:52.747Z,31.66
2023-03-11T14:36:52.859Z,30.07
2023-03-11T14:40:55.029Z,32.95
2023-03-11T14:44:53.138Z,44.61
2023-03-11T14:48:53.129Z,84.51
2023-03-11T14:52:53.176Z,122.32
2023-03-11T14:56:53.197Z,136.12
2023-03-11T15:00:53.188Z,135.24
2023-03-11T15:04:53.253Z,133.73
2023-03-11T15:08:53.436Z,138.33
2023-03-11T15:12:53.406Z,135.09
2023-03-11T15:16:53.458Z,123.36
2023-03-11T15:20:53.353Z,112.13
2023-03-11T15:24:53.361Z,80.39
2023-03-11T15:28:53.261Z,26.44
2023-03-11T15:32:53.357Z,30.89
2023-03-11T15:36:53.216Z,42.41
2023-03-11T15:40:53.243Z,26.91
2023-03-11T15:44:53.109Z,37.15
2023-03-11T15:48:53.093Z,64.60
2023-03-11T15:52:53.069Z,39.15
2023-03-11T15:56:53.124Z,25.92
2023-03-11T16:00:53.076Z,25.00
2023-03-11T16:04:53.113Z,28.29
2023-03-11T16:08:52.919Z,29.86
2023-03-11T16:12:52.912Z,25.51
2023-03-11T16:16:52.969Z,26.88
2023-03-11T16:20:52.904Z,27.47
2023-03-11T16:24:52.860Z,28.93
2023-03-11T16:28:52.896Z,27.72
2023-03-11T16:32:53.053Z,30.62
2023-03-11T16:36:52.785Z,27.49
2023-03-11T16:40:52.739Z,28.58
2023-03-11T16:44:52.698Z,34.08
2023-03-11T16:48:52.683Z,32.21
2023-03-11T16:52:52.669Z,32.05
2023-03-11T16:56:52.669Z,38.21
2023-03-11T17:00:52.554Z,36.07
2023-03-11T17:04:52.604Z,36.65
2023-03-11T17:08:52.521Z,34.91
2023-03-11T17:12:52.474Z,36.64
2023-03-11T17:16:52.638Z,34.23
2023-03-11T17:20:52.889Z,32.43
2023-03-11T17:24:52.872Z,35.03
2023-03-11T17:28:52.898Z,36.64
2023-03-11T17:32:52.945Z,37.20
2023-03-11T17:36:52.848Z,31.88
2023-03-11T17:40:52.878Z,38.33
2023-03-11T17:44:52.905Z,36.68
2023-03-11T17:48:52.961Z,35.23
2023-03-11T17:52:52.992Z,34.20
2023-03-11T17:56:53.131Z,33.79
2023-03-11T18:00:53.208Z,34.48
2023-03-11T18:04:53.278Z,38.40
2023-03-11T18:08:53.405Z,35.66
2023-03-11T18:12:53.497Z,38.25
2023-03-11T18:16:53.735Z,37.87
2023-03-11T18:20:53.792Z,36.58
2023-03-11T18:24:53.993Z,33.57
2023-03-11T18:28:54.325Z,39.25
2023-03-11T18:32:54.411Z,36.92
2023-03-11T18:36:54.627Z,38.03
2023-03-11T18:40:54.848Z,38.79
2023-03-11T18:44:55.057Z,38.46
2023-03-11T18:48:55.295Z,39.03
2023-03-11T18:52:55.610Z,39.31
2023-03-11T18:56:55.668Z,42.44
2023-03-11T19:00:55.957Z,42.02
2023-03-11T19:04:55.929Z,38.49
2023-03-11T19:08:55.829Z,45.19
2023-03-11T19:12:55.800Z,41.96
2023-03-11T19:16:55.860Z,39.50
2023-03-11T19:20:55.742Z,47.54
2023-03-11T19:24:55.736Z,46.34
2023-03-11T19:28:55.649Z,42.36
2023-03-11T19:32:55.767Z,38.74
2023-03-11T19:36:55.606Z,37.16
2023-03-11T19:40:55.586Z,37.53
2023-03-11T19:44:55.508Z,38.50
2023-03-11T19:48:55.617Z,49.07
2023-03-11T19:52:55.472Z,39.54
2023-03-11T19:56:55.486Z,43.72
2023-03-11T20:00:55.494Z,48.49
2023-03-11T20:04:55.501Z,48.85
2023-03-11T20:08:55.508Z,42.36
2023-03-11T20:13:02.216Z,36.62
2023-03-11T20:16:56.497Z,44.05
2023-03-11T20:20:55.411Z,47.33
2023-03-11T20:24:55.355Z,45.90
2023-03-11T20:28:55.422Z,40.54
2023-03-11T20:32:55.425Z,39.56
2023-03-11T20:36:55.361Z,46.89
2023-03-11T20:40:55.526Z,39.40
2023-03-11T20:44:55.563Z,42.45
2023-03-11T20:48:55.645Z,45.18
2023-03-11T20:52:55.788Z,46.66
2023-03-11T20:56:56.473Z,45.90
2023-03-11T21:00:56.046Z,44.71
2023-03-11T21:04:56.176Z,44.75
2023-03-11T21:08:56.263Z,44.95
2023-03-11T21:12:56.379Z,44.19
2023-03-11T21:16:56.699Z,44.07
2023-03-11T21:20:56.743Z,44.13
2023-03-11T21:24:56.912Z,43.90
2023-03-11T21:28:57.123Z,45.87
2023-03-11T21:32:57.430Z,46.57
2023-03-11T21:36:57.625Z,43.43
2023-03-11T21:40:57.781Z,44.86
2023-03-11T21:44:57.977Z,44.62
2023-03-11T21:48:57.832Z,43.73
2023-03-11T21:52:57.903Z,43.66
2023-03-11T21:56:57.815Z,45.97
2023-03-11T22:00:57.816Z,47.35
2023-03-11T22:04:57.773Z,43.78
2023-03-11T22:08:57.669Z,43.05
2023-03-11T22:12:57.589Z,42.07
2023-03-11T22:16:57.663Z,42.34
2023-03-11T22:20:57.674Z,41.99
2023-03-11T22:24:57.584Z,43.15
2023-03-11T22:28:57.905Z,44.06
2023-03-11T22:32:57.927Z,44.19
2023-03-11T22:36:57.763Z,42.38
2023-03-11T22:40:57.713Z,40.92
2023-03-11T22:44:57.727Z,42.25
2023-03-11T22:48:57.633Z,42.96
2023-03-11T22:52:57.630Z,42.39
2023-03-11T22:56:57.600Z,41.86
2023-03-11T23:00:57.521Z,42.68
2023-03-11T23:04:57.543Z,43.90
2023-03-11T23:08:57.900Z,43.65
2023-03-11T23:12:57.488Z,42.35
2023-03-11T23:16:57.608Z,40.59
2023-03-11T23:20:57.341Z,41.35
2023-03-11T23:24:57.292Z,41.91
2023-03-11T23:28:57.304Z,42.95
2023-03-11T23:32:57.408Z,45.06
2023-03-11T23:36:57.259Z,42.97
2023-03-11T23:40:57.230Z,42.67
2023-03-11T23:44:57.310Z,44.21
2023-03-11T23:48:57.186Z,44.49
2023-03-11T23:52:57.150Z,43.84
2023-03-11T23:56:57.131Z,42.54
